sensor_id;sensor_type;location;lat;lon;timestamp;P1;durP1;ratioP1;P2;durP2;ratioP2
5752;SDS011;2901;42.140;24.760;2022-08-03T00:01:14;2.38;;;2.20;;
5752;SDS011;2901;42.140;24.760;2022-08-03T00:03:40;7.75;;;1.98;;
5752;SDS011;2901;42.140;24.760;2022-08-03T00:06:06;1.80;;;1.70;;
5752;SDS011;2901;42.140;24.760;2022-08-03T00:08:31;2.08;;;1.98;;
5752;SDS011;2901;42.140;24.760;2022-08-03T00:10:57;2.35;;;2.17;;
5752;SDS011;2901;42.140;24.760;2022-08-03T00:13:23;1.33;;;1.23;;
5752;SDS011;2901;42.140;24.760;2022-08-03T00:15:49;1.98;;;1.88;;
5752;SDS011;2901;42.140;24.760;2022-08-03T00:18:14;3.33;;;1.83;;
5752;SDS011;2901;42.140;24.760;2022-08-03T00:20:40;2.30;;;1.85;;
5752;SDS011;2901;42.140;24.760;2022-08-03T00:23:06;1.63;;;1.52;;
5752;SDS011;2901;42.140;24.760;2022-08-03T00:25:32;7.70;;;2.00;;
5752;SDS011;2901;42.140;24.760;2022-08-03T00:27:59;2.33;;;1.85;;
5752;SDS011;2901;42.140;24.760;2022-08-03T00:30:24;2.80;;;1.77;;
5752;SDS011;2901;42.140;24.760;2022-08-03T00:32:50;1.90;;;1.80;;
5752;SDS011;2901;42.140;24.760;2022-08-03T00:35:15;1.67;;;1.58;;
5752;SDS011;2901;42.140;24.760;2022-08-03T00:37:41;2.85;;;1.73;;
5752;SDS011;2901;42.140;24.760;2022-08-03T00:40:06;1.77;;;1.70;;
5752;SDS011;2901;42.140;24.760;2022-08-03T00:42:34;1.98;;;1.73;;
5752;SDS011;2901;42.140;24.760;2022-08-03T00:44:59;1.95;;;1.85;;
5752;SDS011;2901;42.140;24.760;2022-08-03T00:47:24;1.80;;;1.70;;
5752;SDS011;2901;42.140;24.760;2022-08-03T00:49:50;3.45;;;1.67;;
5752;SDS011;2901;42.140;24.760;2022-08-03T00:52:15;2.28;;;1.98;;
5752;SDS011;2901;42.140;24.760;2022-08-03T00:54:41;2.10;;;1.85;;
5752;SDS011;2901;42.140;24.760;2022-08-03T00:57:07;3.47;;;1.98;;
5752;SDS011;2901;42.140;24.760;2022-08-03T00:59:32;2.20;;;1.85;;
5752;SDS011;2901;42.140;24.760;2022-08-03T01:01:58;1.80;;;1.70;;
5752;SDS011;2901;42.140;24.760;2022-08-03T01:04:24;2.92;;;1.80;;
5752;SDS011;2901;42.140;24.760;2022-08-03T01:06:59;2.80;;;1.77;;
5752;SDS011;2901;42.140;24.760;2022-08-03T01:09:45;1.80;;;1.70;;
5752;SDS011;2901;42.140;24.760;2022-08-03T01:14:51;2.25;;;2.15;;
5752;SDS011;2901;42.140;24.760;2022-08-03T01:17:46;2.03;;;1.92;;
5752;SDS011;2901;42.140;24.760;2022-08-03T01:20:14;3.90;;;3.00;;
5752;SDS011;2901;42.140;24.760;2022-08-03T01:31:09;2.33;;;2.22;;
5752;SDS011;2901;42.140;24.760;2022-08-03T01:33:41;2.47;;;2.03;;
5752;SDS011;2901;42.140;24.760;2022-08-03T01:36:12;5.10;;;2.67;;
5752;SDS011;2901;42.140;24.760;2022-08-03T01:41:43;5.60;;;3.05;;
5752;SDS011;2901;42.140;24.760;2022-08-03T01:44:14;3.13;;;2.85;;
5752;SDS011;2901;42.140;24.760;2022-08-03T01:46:41;3.75;;;3.15;;
5752;SDS011;2901;42.140;24.760;2022-08-03T01:49:08;4.70;;;3.97;;
5752;SDS011;2901;42.140;24.760;2022-08-03T01:51:38;3.13;;;2.92;;
5752;SDS011;2901;42.140;24.760;2022-08-03T01:54:06;3.42;;;3.13;;
5752;SDS011;2901;42.140;24.760;2022-08-03T01:56:35;3.15;;;2.85;;
5752;SDS011;2901;42.140;24.760;2022-08-03T01:59:02;3.67;;;3.20;;
5752;SDS011;2901;42.140;24.760;2022-08-03T02:01:29;2.97;;;2.88;;
5752;SDS011;2901;42.140;24.760;2022-08-03T02:03:56;4.60;;;2.70;;
5752;SDS011;2901;42.140;24.760;2022-08-03T02:06:24;3.83;;;3.55;;
5752;SDS011;2901;42.140;24.760;2022-08-03T02:08:51;3.08;;;2.88;;
5752;SDS011;2901;42.140;24.760;2022-08-03T02:11:18;6.82;;;2.60;;
5752;SDS011;2901;42.140;24.760;2022-08-03T02:13:43;2.25;;;2.15;;
5752;SDS011;2901;42.140;24.760;2022-08-03T02:16:12;10.73;;;2.85;;
5752;SDS011;2901;42.140;24.760;2022-08-03T02:18:39;5.55;;;2.78;;
5752;SDS011;2901;42.140;24.760;2022-08-03T02:21:06;5.10;;;2.67;;
5752;SDS011;2901;42.140;24.760;2022-08-03T02:23:34;2.30;;;2.20;;
5752;SDS011;2901;42.140;24.760;2022-08-03T02:26:01;3.58;;;2.63;;
5752;SDS011;2901;42.140;24.760;2022-08-03T02:28:30;3.42;;;2.40;;
5752;SDS011;2901;42.140;24.760;2022-08-03T02:30:59;3.65;;;2.67;;
5752;SDS011;2901;42.140;24.760;2022-08-03T02:33:39;2.55;;;2.35;;
5752;SDS011;2901;42.140;24.760;2022-08-03T02:36:07;2.58;;;2.00;;
5752;SDS011;2901;42.140;24.760;2022-08-03T02:38:37;2.45;;;2.25;;
5752;SDS011;2901;42.140;24.760;2022-08-03T02:41:08;3.78;;;1.80;;
5752;SDS011;2901;42.140;24.760;2022-08-03T02:43:39;2.25;;;1.92;;
5752;SDS011;2901;42.140;24.760;2022-08-03T02:46:07;3.10;;;2.28;;
5752;SDS011;2901;42.140;24.760;2022-08-03T02:48:34;5.95;;;2.00;;
5752;SDS011;2901;42.140;24.760;2022-08-03T02:51:02;1.77;;;1.67;;
5752;SDS011;2901;42.140;24.760;2022-08-03T02:53:28;1.38;;;1.38;;
5752;SDS011;2901;42.140;24.760;2022-08-03T02:55:55;1.75;;;1.60;;
5752;SDS011;2901;42.140;24.760;2022-08-03T02:58:21;1.60;;;1.50;;
5752;SDS011;2901;42.140;24.760;2022-08-03T03:00:47;2.53;;;1.20;;
5752;SDS011;2901;42.140;24.760;2022-08-03T03:03:15;1.80;;;1.70;;
5752;SDS011;2901;42.140;24.760;2022-08-03T03:05:41;1.27;;;1.27;;
5752;SDS011;2901;42.140;24.760;2022-08-03T03:08:10;2.25;;;1.55;;
5752;SDS011;2901;42.140;24.760;2022-08-03T03:10:37;1.63;;;1.58;;
5752;SDS011;2901;42.140;24.760;2022-08-03T03:13:03;1.73;;;1.63;;
5752;SDS011;2901;42.140;24.760;2022-08-03T03:15:30;1.40;;;1.40;;
5752;SDS011;2901;42.140;24.760;2022-08-03T03:17:56;1.77;;;1.65;;
5752;SDS011;2901;42.140;24.760;2022-08-03T03:20:24;1.83;;;1.73;;
5752;SDS011;2901;42.140;24.760;2022-08-03T03:22:51;1.35;;;1.23;;
5752;SDS011;2901;42.140;24.760;2022-08-03T03:25:17;1.83;;;1.58;;
5752;SDS011;2901;42.140;24.760;2022-08-03T03:27:45;2.00;;;1.52;;
5752;SDS011;2901;42.140;24.760;2022-08-03T03:30:11;3.17;;;1.85;;
5752;SDS011;2901;42.140;24.760;2022-08-03T03:32:36;6.88;;;1.70;;
5752;SDS011;2901;42.140;24.760;2022-08-03T03:35:04;2.60;;;1.55;;
5752;SDS011;2901;42.140;24.760;2022-08-03T03:37:29;1.73;;;1.60;;
5752;SDS011;2901;42.140;24.760;2022-08-03T03:39:55;1.60;;;1.50;;
5752;SDS011;2901;42.140;24.760;2022-08-03T03:42:20;1.73;;;1.63;;
5752;SDS011;2901;42.140;24.760;2022-08-03T03:44:46;4.60;;;2.05;;
5752;SDS011;2901;42.140;24.760;2022-08-03T03:47:12;2.97;;;1.80;;
5752;SDS011;2901;42.140;24.760;2022-08-03T03:49:38;2.40;;;2.00;;
5752;SDS011;2901;42.140;24.760;2022-08-03T03:52:04;1.85;;;1.65;;
5752;SDS011;2901;42.140;24.760;2022-08-03T03:54:42;2.05;;;1.67;;
5752;SDS011;2901;42.140;24.760;2022-08-03T03:57:09;6.35;;;2.08;;
5752;SDS011;2901;42.140;24.760;2022-08-03T03:59:39;1.48;;;1.38;;
5752;SDS011;2901;42.140;24.760;2022-08-03T04:02:05;2.25;;;1.70;;
5752;SDS011;2901;42.140;24.760;2022-08-03T04:04:33;1.98;;;1.83;;
5752;SDS011;2901;42.140;24.760;2022-08-03T04:07:17;1.95;;;1.85;;
5752;SDS011;2901;42.140;24.760;2022-08-03T04:10:03;5.47;;;1.60;;
5752;SDS011;2901;42.140;24.760;2022-08-03T04:12:50;2.03;;;1.92;;
5752;SDS011;2901;42.140;24.760;2022-08-03T04:15:18;1.92;;;1.83;;
5752;SDS011;2901;42.140;24.760;2022-08-03T04:17:46;1.75;;;1.65;;
5752;SDS011;2901;42.140;24.760;2022-08-03T04:20:15;2.67;;;1.92;;
5752;SDS011;2901;42.140;24.760;2022-08-03T04:22:44;1.50;;;1.40;;
5752;SDS011;2901;42.140;24.760;2022-08-03T04:25:12;1.73;;;1.63;;
5752;SDS011;2901;42.140;24.760;2022-08-03T04:27:42;4.13;;;2.03;;
5752;SDS011;2901;42.140;24.760;2022-08-03T04:30:08;2.10;;;1.60;;
5752;SDS011;2901;42.140;24.760;2022-08-03T04:32:35;2.13;;;2.03;;
5752;SDS011;2901;42.140;24.760;2022-08-03T04:35:02;1.92;;;1.83;;
5752;SDS011;2901;42.140;24.760;2022-08-03T04:39:56;1.90;;;1.80;;
5752;SDS011;2901;42.140;24.760;2022-08-03T04:42:24;1.75;;;1.65;;
5752;SDS011;2901;42.140;24.760;2022-08-03T04:44:50;1.83;;;1.75;;
5752;SDS011;2901;42.140;24.760;2022-08-03T04:47:18;2.00;;;1.70;;
5752;SDS011;2901;42.140;24.760;2022-08-03T04:49:43;3.95;;;1.95;;
5752;SDS011;2901;42.140;24.760;2022-08-03T04:52:09;1.80;;;1.70;;
5752;SDS011;2901;42.140;24.760;2022-08-03T04:54:39;2.17;;;1.95;;
5752;SDS011;2901;42.140;24.760;2022-08-03T04:57:09;2.17;;;2.08;;
5752;SDS011;2901;42.140;24.760;2022-08-03T04:59:35;3.22;;;1.80;;
5752;SDS011;2901;42.140;24.760;2022-08-03T05:02:01;1.90;;;1.63;;
5752;SDS011;2901;42.140;24.760;2022-08-03T05:04:26;2.22;;;1.95;;
5752;SDS011;2901;42.140;24.760;2022-08-03T05:06:52;1.70;;;1.60;;
5752;SDS011;2901;42.140;24.760;2022-08-03T05:09:17;2.35;;;1.90;;
5752;SDS011;2901;42.140;24.760;2022-08-03T05:11:43;1.88;;;1.77;;
5752;SDS011;2901;42.140;24.760;2022-08-03T05:14:08;2.38;;;2.05;;
5752;SDS011;2901;42.140;24.760;2022-08-03T05:16:34;1.75;;;1.65;;
5752;SDS011;2901;42.140;24.760;2022-08-03T05:18:59;4.97;;;2.15;;
5752;SDS011;2901;42.140;24.760;2022-08-03T05:21:24;2.38;;;2.17;;
5752;SDS011;2901;42.140;24.760;2022-08-03T05:23:50;1.92;;;1.55;;
5752;SDS011;2901;42.140;24.760;2022-08-03T05:26:15;2.65;;;1.90;;
5752;SDS011;2901;42.140;24.760;2022-08-03T05:28:41;3.35;;;2.53;;
5752;SDS011;2901;42.140;24.760;2022-08-03T05:31:06;2.05;;;1.70;;
5752;SDS011;2901;42.140;24.760;2022-08-03T05:33:32;2.13;;;1.90;;
5752;SDS011;2901;42.140;24.760;2022-08-03T05:35:57;2.10;;;2.00;;
5752;SDS011;2901;42.140;24.760;2022-08-03T05:38:23;3.30;;;1.73;;
5752;SDS011;2901;42.140;24.760;2022-08-03T05:40:49;3.30;;;1.95;;
5752;SDS011;2901;42.140;24.760;2022-08-03T05:43:15;1.90;;;1.80;;
5752;SDS011;2901;42.140;24.760;2022-08-03T05:45:40;3.00;;;2.00;;
5752;SDS011;2901;42.140;24.760;2022-08-03T05:48:07;4.20;;;1.90;;
5752;SDS011;2901;42.140;24.760;2022-08-03T05:50:32;5.05;;;2.40;;
5752;SDS011;2901;42.140;24.760;2022-08-03T05:52:58;4.15;;;1.90;;
5752;SDS011;2901;42.140;24.760;2022-08-03T05:55:23;5.30;;;2.10;;
5752;SDS011;2901;42.140;24.760;2022-08-03T05:57:49;3.17;;;1.98;;
5752;SDS011;2901;42.140;24.760;2022-08-03T06:00:14;9.18;;;2.05;;
5752;SDS011;2901;42.140;24.760;2022-08-03T06:02:40;5.15;;;2.15;;
5752;SDS011;2901;42.140;24.760;2022-08-03T06:05:06;2.33;;;2.08;;
5752;SDS011;2901;42.140;24.760;2022-08-03T06:07:32;6.63;;;1.85;;
5752;SDS011;2901;42.140;24.760;2022-08-03T06:09:58;7.10;;;2.42;;
5752;SDS011;2901;42.140;24.760;2022-08-03T06:12:26;2.00;;;1.83;;
5752;SDS011;2901;42.140;24.760;2022-08-03T06:14:51;3.90;;;2.35;;
5752;SDS011;2901;42.140;24.760;2022-08-03T06:17:17;3.25;;;2.25;;
5752;SDS011;2901;42.140;24.760;2022-08-03T06:19:42;7.90;;;2.88;;
5752;SDS011;2901;42.140;24.760;2022-08-03T06:22:08;6.60;;;2.65;;
5752;SDS011;2901;42.140;24.760;2022-08-03T06:24:33;4.10;;;2.00;;
5752;SDS011;2901;42.140;24.760;2022-08-03T06:26:59;3.53;;;2.28;;
5752;SDS011;2901;42.140;24.760;2022-08-03T06:29:24;4.90;;;2.53;;
5752;SDS011;2901;42.140;24.760;2022-08-03T06:31:49;6.05;;;2.80;;
5752;SDS011;2901;42.140;24.760;2022-08-03T06:34:15;5.53;;;2.55;;
5752;SDS011;2901;42.140;24.760;2022-08-03T06:36:40;15.60;;;2.80;;
5752;SDS011;2901;42.140;24.760;2022-08-03T06:39:06;7.05;;;2.45;;
5752;SDS011;2901;42.140;24.760;2022-08-03T06:41:31;2.40;;;2.30;;
5752;SDS011;2901;42.140;24.760;2022-08-03T06:43:57;4.00;;;2.13;;
5752;SDS011;2901;42.140;24.760;2022-08-03T06:46:23;4.55;;;2.30;;
5752;SDS011;2901;42.140;24.760;2022-08-03T06:48:48;3.65;;;2.28;;
5752;SDS011;2901;42.140;24.760;2022-08-03T06:51:14;2.88;;;2.22;;
5752;SDS011;2901;42.140;24.760;2022-08-03T06:53:39;16.23;;;3.08;;
5752;SDS011;2901;42.140;24.760;2022-08-03T06:56:05;4.88;;;2.38;;
5752;SDS011;2901;42.140;24.760;2022-08-03T06:58:31;2.78;;;1.95;;
5752;SDS011;2901;42.140;24.760;2022-08-03T07:00:56;2.88;;;2.35;;
5752;SDS011;2901;42.140;24.760;2022-08-03T07:03:22;7.82;;;3.85;;
5752;SDS011;2901;42.140;24.760;2022-08-03T07:05:47;8.68;;;3.78;;
5752;SDS011;2901;42.140;24.760;2022-08-03T07:08:13;2.63;;;1.88;;
5752;SDS011;2901;42.140;24.760;2022-08-03T07:10:39;4.57;;;2.08;;
5752;SDS011;2901;42.140;24.760;2022-08-03T07:13:05;8.52;;;2.58;;
5752;SDS011;2901;42.140;24.760;2022-08-03T07:15:30;2.33;;;1.98;;
5752;SDS011;2901;42.140;24.760;2022-08-03T07:17:56;1.92;;;1.83;;
5752;SDS011;2901;42.140;24.760;2022-08-03T07:20:22;3.85;;;2.00;;
5752;SDS011;2901;42.140;24.760;2022-08-03T07:22:48;1.98;;;1.88;;
5752;SDS011;2901;42.140;24.760;2022-08-03T07:25:13;3.05;;;2.17;;
5752;SDS011;2901;42.140;24.760;2022-08-03T07:27:46;2.80;;;2.05;;
5752;SDS011;2901;42.140;24.760;2022-08-03T07:30:13;2.30;;;2.20;;
5752;SDS011;2901;42.140;24.760;2022-08-03T07:32:39;3.55;;;3.30;;
5752;SDS011;2901;42.140;24.760;2022-08-03T07:35:05;5.07;;;2.75;;
5752;SDS011;2901;42.140;24.760;2022-08-03T07:37:31;3.13;;;2.70;;
5752;SDS011;2901;42.140;24.760;2022-08-03T07:39:57;4.57;;;2.88;;
5752;SDS011;2901;42.140;24.760;2022-08-03T07:42:26;7.30;;;3.15;;
5752;SDS011;2901;42.140;24.760;2022-08-03T07:44:52;11.00;;;3.05;;
5752;SDS011;2901;42.140;24.760;2022-08-03T07:47:19;4.13;;;3.00;;
5752;SDS011;2901;42.140;24.760;2022-08-03T07:49:48;3.33;;;3.13;;
5752;SDS011;2901;42.140;24.760;2022-08-03T07:52:14;3.90;;;3.60;;
5752;SDS011;2901;42.140;24.760;2022-08-03T07:54:57;8.13;;;7.35;;
5752;SDS011;2901;42.140;24.760;2022-08-03T07:57:23;6.13;;;3.08;;
5752;SDS011;2901;42.140;24.760;2022-08-03T07:59:48;5.28;;;3.15;;
5752;SDS011;2901;42.140;24.760;2022-08-03T08:02:14;5.65;;;4.40;;
5752;SDS011;2901;42.140;24.760;2022-08-03T08:04:39;2.47;;;2.38;;
5752;SDS011;2901;42.140;24.760;2022-08-03T08:07:05;6.43;;;2.85;;
5752;SDS011;2901;42.140;24.760;2022-08-03T08:09:31;5.60;;;3.55;;
5752;SDS011;2901;42.140;24.760;2022-08-03T08:11:56;3.08;;;2.80;;
5752;SDS011;2901;42.140;24.760;2022-08-03T08:14:22;4.68;;;3.15;;
5752;SDS011;2901;42.140;24.760;2022-08-03T08:16:48;4.00;;;2.85;;
5752;SDS011;2901;42.140;24.760;2022-08-03T08:19:13;4.20;;;3.10;;
5752;SDS011;2901;42.140;24.760;2022-08-03T08:21:41;3.20;;;3.00;;
5752;SDS011;2901;42.140;24.760;2022-08-03T08:24:07;2.92;;;2.72;;
5752;SDS011;2901;42.140;24.760;2022-08-03T08:26:32;5.05;;;2.90;;
5752;SDS011;2901;42.140;24.760;2022-08-03T08:28:58;5.15;;;3.40;;
5752;SDS011;2901;42.140;24.760;2022-08-03T08:31:23;3.53;;;2.90;;
5752;SDS011;2901;42.140;24.760;2022-08-03T08:33:48;4.10;;;3.72;;
5752;SDS011;2901;42.140;24.760;2022-08-03T08:36:14;5.15;;;3.58;;
5752;SDS011;2901;42.140;24.760;2022-08-03T08:38:39;3.90;;;2.75;;
5752;SDS011;2901;42.140;24.760;2022-08-03T08:41:07;8.77;;;2.90;;
5752;SDS011;2901;42.140;24.760;2022-08-03T08:43:34;3.50;;;3.08;;
5752;SDS011;2901;42.140;24.760;2022-08-03T08:46:00;5.88;;;3.38;;
5752;SDS011;2901;42.140;24.760;2022-08-03T08:48:25;4.97;;;2.90;;
5752;SDS011;2901;42.140;24.760;2022-08-03T08:50:53;3.13;;;2.50;;
5752;SDS011;2901;42.140;24.760;2022-08-03T08:53:19;4.18;;;2.50;;
5752;SDS011;2901;42.140;24.760;2022-08-03T08:55:46;5.18;;;3.10;;
5752;SDS011;2901;42.140;24.760;2022-08-03T08:58:12;3.30;;;3.00;;
5752;SDS011;2901;42.140;24.760;2022-08-03T09:00:43;6.85;;;3.30;;
5752;SDS011;2901;42.140;24.760;2022-08-03T09:03:10;6.03;;;2.80;;
5752;SDS011;2901;42.140;24.760;2022-08-03T09:05:36;3.53;;;2.80;;
5752;SDS011;2901;42.140;24.760;2022-08-03T09:08:03;4.75;;;2.95;;
5752;SDS011;2901;42.140;24.760;2022-08-03T09:10:30;5.80;;;3.20;;
5752;SDS011;2901;42.140;24.760;2022-08-03T09:12:55;4.43;;;3.05;;
5752;SDS011;2901;42.140;24.760;2022-08-03T09:15:22;2.80;;;2.70;;
5752;SDS011;2901;42.140;24.760;2022-08-03T09:17:48;5.38;;;2.85;;
5752;SDS011;2901;42.140;24.760;2022-08-03T09:20:15;3.47;;;3.03;;
5752;SDS011;2901;42.140;24.760;2022-08-03T09:22:50;3.17;;;2.97;;
5752;SDS011;2901;42.140;24.760;2022-08-03T09:25:30;3.35;;;3.03;;
5752;SDS011;2901;42.140;24.760;2022-08-03T09:28:18;3.47;;;3.17;;
5752;SDS011;2901;42.140;24.760;2022-08-03T09:30:44;7.85;;;3.40;;
5752;SDS011;2901;42.140;24.760;2022-08-03T09:33:23;3.97;;;3.50;;
5752;SDS011;2901;42.140;24.760;2022-08-03T09:35:49;13.90;;;3.15;;
5752;SDS011;2901;42.140;24.760;2022-08-03T09:38:18;4.82;;;2.63;;
5752;SDS011;2901;42.140;24.760;2022-08-03T09:40:50;2.60;;;2.38;;
5752;SDS011;2901;42.140;24.760;2022-08-03T09:43:16;2.42;;;2.20;;
5752;SDS011;2901;42.140;24.760;2022-08-03T09:45:42;4.10;;;2.20;;
5752;SDS011;2901;42.140;24.760;2022-08-03T09:50:49;4.07;;;2.50;;
5752;SDS011;2901;42.140;24.760;2022-08-03T09:53:17;3.72;;;2.30;;
5752;SDS011;2901;42.140;24.760;2022-08-03T09:55:59;2.65;;;2.55;;
5752;SDS011;2901;42.140;24.760;2022-08-03T09:58:26;3.55;;;3.05;;
5752;SDS011;2901;42.140;24.760;2022-08-03T10:03:24;3.72;;;2.90;;
5752;SDS011;2901;42.140;24.760;2022-08-03T10:05:50;4.97;;;2.38;;
5752;SDS011;2901;42.140;24.760;2022-08-03T10:08:17;2.95;;;2.45;;
5752;SDS011;2901;42.140;24.760;2022-08-03T10:10:45;3.10;;;2.90;;
5752;SDS011;2901;42.140;24.760;2022-08-03T10:13:13;4.38;;;4.05;;
5752;SDS011;2901;42.140;24.760;2022-08-03T10:15:40;3.55;;;3.10;;
5752;SDS011;2901;42.140;24.760;2022-08-03T10:18:05;5.70;;;2.95;;
5752;SDS011;2901;42.140;24.760;2022-08-03T10:20:32;3.13;;;3.00;;
5752;SDS011;2901;42.140;24.760;2022-08-03T10:23:02;3.00;;;2.90;;
5752;SDS011;2901;42.140;24.760;2022-08-03T10:25:29;3.10;;;3.00;;
5752;SDS011;2901;42.140;24.760;2022-08-03T10:27:56;2.60;;;2.40;;
5752;SDS011;2901;42.140;24.760;2022-08-03T10:30:26;3.00;;;2.38;;
5752;SDS011;2901;42.140;24.760;2022-08-03T10:35:21;2.92;;;2.83;;
5752;SDS011;2901;42.140;24.760;2022-08-03T10:40:14;4.47;;;2.78;;
5752;SDS011;2901;42.140;24.760;2022-08-03T10:42:44;3.60;;;3.40;;
5752;SDS011;2901;42.140;24.760;2022-08-03T10:45:19;3.88;;;3.53;;
5752;SDS011;2901;42.140;24.760;2022-08-03T10:47:48;3.38;;;2.72;;
5752;SDS011;2901;42.140;24.760;2022-08-03T10:50:15;3.22;;;2.70;;
5752;SDS011;2901;42.140;24.760;2022-08-03T10:52:57;2.97;;;2.35;;
5752;SDS011;2901;42.140;24.760;2022-08-03T10:55:28;2.63;;;2.53;;
5752;SDS011;2901;42.140;24.760;2022-08-03T11:01:06;4.82;;;2.78;;
5752;SDS011;2901;42.140;24.760;2022-08-03T11:06:18;3.35;;;3.05;;
5752;SDS011;2901;42.140;24.760;2022-08-03T11:08:48;2.55;;;2.45;;
5752;SDS011;2901;42.140;24.760;2022-08-03T11:13:59;3.15;;;2.33;;
5752;SDS011;2901;42.140;24.760;2022-08-03T11:16:48;2.90;;;2.72;;
5752;SDS011;2901;42.140;24.760;2022-08-03T11:19:43;3.10;;;3.00;;
5752;SDS011;2901;42.140;24.760;2022-08-03T11:22:10;2.75;;;2.60;;
5752;SDS011;2901;42.140;24.760;2022-08-03T11:35:11;2.50;;;2.40;;
5752;SDS011;2901;42.140;24.760;2022-08-03T11:50:57;3.40;;;2.60;;
5752;SDS011;2901;42.140;24.760;2022-08-03T11:53:23;2.85;;;2.53;;
5752;SDS011;2901;42.140;24.760;2022-08-03T11:55:49;2.95;;;2.63;;
5752;SDS011;2901;42.140;24.760;2022-08-03T11:58:15;4.07;;;2.42;;
5752;SDS011;2901;42.140;24.760;2022-08-03T12:00:41;3.50;;;2.25;;
5752;SDS011;2901;42.140;24.760;2022-08-03T12:03:08;2.45;;;2.25;;
5752;SDS011;2901;42.140;24.760;2022-08-03T12:05:37;3.47;;;2.65;;
5752;SDS011;2901;42.140;24.760;2022-08-03T12:08:08;3.20;;;2.20;;
5752;SDS011;2901;42.140;24.760;2022-08-03T12:10:35;2.17;;;1.77;;
5752;SDS011;2901;42.140;24.760;2022-08-03T12:13:02;2.33;;;2.20;;
5752;SDS011;2901;42.140;24.760;2022-08-03T12:15:30;4.85;;;2.35;;
5752;SDS011;2901;42.140;24.760;2022-08-03T12:18:00;2.33;;;2.22;;
5752;SDS011;2901;42.140;24.760;2022-08-03T12:20:28;3.35;;;2.42;;
5752;SDS011;2901;42.140;24.760;2022-08-03T12:23:03;2.22;;;2.10;;
5752;SDS011;2901;42.140;24.760;2022-08-03T12:25:29;2.55;;;2.20;;
5752;SDS011;2901;42.140;24.760;2022-08-03T12:28:04;2.03;;;1.92;;
5752;SDS011;2901;42.140;24.760;2022-08-03T12:30:32;3.28;;;1.88;;
5752;SDS011;2901;42.140;24.760;2022-08-03T12:32:57;1.88;;;1.88;;
5752;SDS011;2901;42.140;24.760;2022-08-03T12:35:23;3.08;;;2.40;;
5752;SDS011;2901;42.140;24.760;2022-08-03T12:37:49;2.25;;;2.15;;
5752;SDS011;2901;42.140;24.760;2022-08-03T12:40:22;1.70;;;1.60;;
5752;SDS011;2901;42.140;24.760;2022-08-03T12:42:50;2.20;;;2.00;;
5752;SDS011;2901;42.140;24.760;2022-08-03T12:48:00;2.20;;;2.13;;
5752;SDS011;2901;42.140;24.760;2022-08-03T12:50:29;3.20;;;1.73;;
5752;SDS011;2901;42.140;24.760;2022-08-03T12:53:01;2.60;;;1.92;;
5752;SDS011;2901;42.140;24.760;2022-08-03T12:55:29;2.60;;;1.80;;
5752;SDS011;2901;42.140;24.760;2022-08-03T12:58:01;2.03;;;1.83;;
5752;SDS011;2901;42.140;24.760;2022-08-03T13:00:28;1.63;;;1.52;;
5752;SDS011;2901;42.140;24.760;2022-08-03T13:03:04;3.72;;;1.55;;
5752;SDS011;2901;42.140;24.760;2022-08-03T13:05:42;1.30;;;1.30;;
5752;SDS011;2901;42.140;24.760;2022-08-03T13:08:21;1.63;;;1.52;;
5752;SDS011;2901;42.140;24.760;2022-08-03T13:10:48;2.08;;;1.60;;
5752;SDS011;2901;42.140;24.760;2022-08-03T13:13:14;1.98;;;1.85;;
5752;SDS011;2901;42.140;24.760;2022-08-03T13:15:40;1.25;;;1.25;;
5752;SDS011;2901;42.140;24.760;2022-08-03T13:18:05;1.95;;;1.35;;
5752;SDS011;2901;42.140;24.760;2022-08-03T13:20:31;1.50;;;1.50;;
5752;SDS011;2901;42.140;24.760;2022-08-03T13:22:57;1.50;;;1.48;;
5752;SDS011;2901;42.140;24.760;2022-08-03T13:25:23;1.80;;;1.40;;
5752;SDS011;2901;42.140;24.760;2022-08-03T13:27:48;1.40;;;1.40;;
5752;SDS011;2901;42.140;24.760;2022-08-03T13:30:14;1.20;;;1.20;;
5752;SDS011;2901;42.140;24.760;2022-08-03T13:32:40;1.83;;;1.73;;
5752;SDS011;2901;42.140;24.760;2022-08-03T13:35:06;1.30;;;1.30;;
5752;SDS011;2901;42.140;24.760;2022-08-03T13:37:33;3.17;;;1.92;;
5752;SDS011;2901;42.140;24.760;2022-08-03T13:39:59;2.83;;;2.00;;
5752;SDS011;2901;42.140;24.760;2022-08-03T13:42:25;9.38;;;1.80;;
5752;SDS011;2901;42.140;24.760;2022-08-03T13:44:50;3.13;;;2.03;;
5752;SDS011;2901;42.140;24.760;2022-08-03T13:47:15;1.65;;;1.65;;
5752;SDS011;2901;42.140;24.760;2022-08-03T13:49:41;1.45;;;1.45;;
5752;SDS011;2901;42.140;24.760;2022-08-03T13:52:06;5.07;;;1.73;;
5752;SDS011;2901;42.140;24.760;2022-08-03T13:54:32;4.00;;;1.80;;
5752;SDS011;2901;42.140;24.760;2022-08-03T13:56:58;1.88;;;1.73;;
5752;SDS011;2901;42.140;24.760;2022-08-03T13:59:23;1.48;;;1.40;;
5752;SDS011;2901;42.140;24.760;2022-08-03T14:01:50;1.63;;;1.60;;
5752;SDS011;2901;42.140;24.760;2022-08-03T14:04:16;1.73;;;1.63;;
5752;SDS011;2901;42.140;24.760;2022-08-03T14:06:42;1.95;;;1.85;;
5752;SDS011;2901;42.140;24.760;2022-08-03T14:09:11;3.38;;;2.35;;
5752;SDS011;2901;42.140;24.760;2022-08-03T14:11:37;1.67;;;1.58;;
5752;SDS011;2901;42.140;24.760;2022-08-03T14:14:03;1.75;;;1.55;;
5752;SDS011;2901;42.140;24.760;2022-08-03T14:16:29;2.17;;;2.08;;
5752;SDS011;2901;42.140;24.760;2022-08-03T14:18:54;1.88;;;1.77;;
5752;SDS011;2901;42.140;24.760;2022-08-03T14:21:20;2.10;;;2.00;;
5752;SDS011;2901;42.140;24.760;2022-08-03T14:23:45;2.35;;;1.88;;
5752;SDS011;2901;42.140;24.760;2022-08-03T14:26:10;1.70;;;1.60;;
5752;SDS011;2901;42.140;24.760;2022-08-03T14:28:38;4.65;;;4.25;;
5752;SDS011;2901;42.140;24.760;2022-08-03T14:31:03;13.30;;;7.25;;
5752;SDS011;2901;42.140;24.760;2022-08-03T14:33:29;1.75;;;1.65;;
5752;SDS011;2901;42.140;24.760;2022-08-03T14:35:54;2.10;;;2.00;;
5752;SDS011;2901;42.140;24.760;2022-08-03T14:38:20;1.98;;;1.88;;
5752;SDS011;2901;42.140;24.760;2022-08-03T14:40:46;3.08;;;2.88;;
5752;SDS011;2901;42.140;24.760;2022-08-03T14:43:12;5.22;;;2.10;;
5752;SDS011;2901;42.140;24.760;2022-08-03T14:45:38;2.92;;;2.13;;
5752;SDS011;2901;42.140;24.760;2022-08-03T14:48:04;2.10;;;2.00;;
5752;SDS011;2901;42.140;24.760;2022-08-03T14:50:30;2.38;;;2.15;;
5752;SDS011;2901;42.140;24.760;2022-08-03T14:52:55;1.73;;;1.63;;
5752;SDS011;2901;42.140;24.760;2022-08-03T14:55:21;1.80;;;1.70;;
5752;SDS011;2901;42.140;24.760;2022-08-03T14:57:46;3.35;;;2.20;;
5752;SDS011;2901;42.140;24.760;2022-08-03T15:00:12;2.15;;;2.05;;
5752;SDS011;2901;42.140;24.760;2022-08-03T15:02:37;5.80;;;3.08;;
5752;SDS011;2901;42.140;24.760;2022-08-03T15:05:03;2.60;;;2.50;;
5752;SDS011;2901;42.140;24.760;2022-08-03T15:07:28;2.53;;;2.33;;
5752;SDS011;2901;42.140;24.760;2022-08-03T15:09:54;2.45;;;2.10;;
5752;SDS011;2901;42.140;24.760;2022-08-03T15:12:19;2.58;;;1.85;;
5752;SDS011;2901;42.140;24.760;2022-08-03T15:14:45;5.03;;;2.20;;
5752;SDS011;2901;42.140;24.760;2022-08-03T15:17:11;1.67;;;1.58;;
5752;SDS011;2901;42.140;24.760;2022-08-03T15:19:36;2.67;;;1.90;;
5752;SDS011;2901;42.140;24.760;2022-08-03T15:22:01;1.88;;;1.77;;
5752;SDS011;2901;42.140;24.760;2022-08-03T15:24:27;2.20;;;2.10;;
5752;SDS011;2901;42.140;24.760;2022-08-03T15:26:53;2.25;;;2.15;;
5752;SDS011;2901;42.140;24.760;2022-08-03T15:29:18;3.88;;;2.03;;
5752;SDS011;2901;42.140;24.760;2022-08-03T15:31:44;1.65;;;1.45;;
5752;SDS011;2901;42.140;24.760;2022-08-03T15:34:09;4.03;;;2.30;;
5752;SDS011;2901;42.140;24.760;2022-08-03T15:36:36;2.33;;;2.13;;
5752;SDS011;2901;42.140;24.760;2022-08-03T15:39:01;2.38;;;2.00;;
5752;SDS011;2901;42.140;24.760;2022-08-03T15:41:27;3.15;;;2.00;;
5752;SDS011;2901;42.140;24.760;2022-08-03T15:43:52;6.47;;;1.98;;
5752;SDS011;2901;42.140;24.760;2022-08-03T15:46:18;5.82;;;2.30;;
5752;SDS011;2901;42.140;24.760;2022-08-03T15:48:43;4.55;;;2.17;;
5752;SDS011;2901;42.140;24.760;2022-08-03T15:51:09;2.83;;;2.63;;
5752;SDS011;2901;42.140;24.760;2022-08-03T15:53:35;2.10;;;2.00;;
5752;SDS011;2901;42.140;24.760;2022-08-03T15:56:03;2.05;;;1.90;;
5752;SDS011;2901;42.140;24.760;2022-08-03T15:58:31;2.10;;;2.00;;
5752;SDS011;2901;42.140;24.760;2022-08-03T16:00:57;2.30;;;2.20;;
5752;SDS011;2901;42.140;24.760;2022-08-03T16:03:24;4.40;;;2.40;;